createdAt,value
2022-11-15T00:00:29.254Z,1.49
2022-11-15T00:03:36.919Z,1.51
2022-11-15T00:06:43.282Z,1.69
2022-11-15T00:09:50.084Z,1.19
2022-11-15T00:12:56.381Z,0.92
2022-11-15T00:16:04.013Z,1.35
2022-11-15T00:19:12.018Z,1.02
2022-11-15T00:22:18.398Z,0.95
2022-11-15T00:25:24.738Z,1.14
2022-11-15T00:28:31.756Z,1.05
2022-11-15T00:31:49.720Z,1.32
2022-11-15T00:34:57.114Z,0.50
2022-11-15T00:38:03.667Z,0.31
2022-11-15T00:41:10.412Z,0.32
2022-11-15T00:44:16.696Z,0.98
2022-11-15T00:47:23.188Z,0.78
2022-11-15T00:50:31.017Z,0.72
2022-11-15T00:53:37.381Z,1.38
2022-11-15T00:56:43.791Z,1.42
2022-11-15T00:59:50.319Z,1.35
2022-11-15T01:02:56.798Z,1.12
2022-11-15T01:06:05.612Z,0.89
2022-11-15T01:09:12.047Z,1.23
2022-11-15T01:12:18.362Z,0.80
2022-11-15T01:15:24.802Z,0.18
2022-11-15T01:18:30.973Z,-0.10
2022-11-15T01:21:38.669Z,0.15
2022-11-15T01:24:45.027Z,-0.13
2022-11-15T01:27:51.258Z,0.10
2022-11-15T01:31:00.471Z,0.31
2022-11-15T01:34:06.525Z,0.92
2022-11-15T01:37:14.397Z,0.30
2022-11-15T01:40:20.677Z,0.35
2022-11-15T01:43:29.643Z,0.41
2022-11-15T01:46:37.986Z,0.99
2022-11-15T01:49:52.169Z,1.33
2022-11-15T01:52:59.661Z,1.17
2022-11-15T01:56:08.905Z,0.69
2022-11-15T01:59:15.671Z,0.63
2022-11-15T02:02:22.432Z,0.97
2022-11-15T02:05:28.901Z,1.27
2022-11-15T02:08:36.552Z,1.31
2022-11-15T02:11:43.968Z,1.12
2022-11-15T02:14:53.918Z,1.30
2022-11-15T02:18:13.782Z,0.36
2022-11-15T02:21:29.153Z,-0.49
2022-11-15T02:24:57.437Z,-0.01
2022-11-15T02:28:30.549Z,0.50
2022-11-15T02:31:47.714Z,-0.49
2022-11-15T02:35:04.035Z,-0.18
2022-11-15T02:38:19.408Z,0.51
2022-11-15T02:41:32.130Z,0.62
2022-11-15T02:44:44.774Z,0.69
2022-11-15T02:47:56.520Z,0.90
2022-11-15T02:51:03.885Z,0.66
2022-11-15T02:54:14.587Z,0.21
2022-11-15T02:57:24.724Z,-0.12
2022-11-15T03:00:38.888Z,-0.19
2022-11-15T03:03:59.664Z,0.27
2022-11-15T03:07:14.020Z,0.71
2022-11-15T03:10:27.466Z,-0.03
2022-11-15T03:13:40.103Z,0.24
2022-11-15T03:16:51.523Z,0.18
2022-11-15T03:20:02.671Z,-0.21
2022-11-15T03:23:12.384Z,-0.29
2022-11-15T03:26:23.696Z,-0.10
2022-11-15T03:29:35.629Z,-0.11
2022-11-15T03:32:46.870Z,0.00
2022-11-15T03:35:56.387Z,-0.26
2022-11-15T03:39:07.330Z,-0.47
2022-11-15T03:42:22.775Z,0.03
2022-11-15T03:45:34.430Z,0.27
2022-11-15T03:48:47.166Z,0.52
2022-11-15T03:51:55.406Z,0.30
2022-11-15T03:55:05.557Z,0.18
2022-11-15T03:58:12.053Z,0.56
2022-11-15T04:01:18.531Z,0.65
2022-11-15T04:04:25.231Z,-0.10
2022-11-15T04:07:32.788Z,-0.16
2022-11-15T04:10:39.673Z,-0.26
2022-11-15T04:13:45.868Z,-0.54
2022-11-15T04:16:51.832Z,-0.96
2022-11-15T04:20:15.977Z,-0.72
2022-11-15T04:23:42.872Z,-0.39
2022-11-15T04:26:49.049Z,-0.01
2022-11-15T04:29:55.791Z,-0.35
2022-11-15T04:33:02.470Z,-0.03
2022-11-15T04:36:27.173Z,0.48
2022-11-15T04:39:34.685Z,0.17
2022-11-15T04:42:43.096Z,0.21
2022-11-15T04:45:49.277Z,0.51
2022-11-15T04:48:58.862Z,0.01
2022-11-15T04:52:06.062Z,0.40
2022-11-15T04:55:13.805Z,0.34
2022-11-15T04:58:20.356Z,-0.21
2022-11-15T05:01:26.858Z,-0.23
2022-11-15T05:04:32.417Z,-0.13
2022-11-15T05:07:38.974Z,-0.73
2022-11-15T05:10:47.084Z,-0.96
2022-11-15T05:13:53.465Z,-1.29
2022-11-15T05:16:59.906Z,-1.27
2022-11-15T05:20:07.084Z,-1.27
2022-11-15T05:23:13.341Z,-0.72
2022-11-15T05:26:21.373Z,-1.37
2022-11-15T05:29:27.640Z,-0.97
2022-11-15T05:32:33.949Z,-0.23
2022-11-15T05:35:44.090Z,0.30
2022-11-15T05:38:51.198Z,0.51
2022-11-15T05:42:03.958Z,0.77
2022-11-15T05:45:11.671Z,0.83
2022-11-15T05:48:18.617Z,1.36
2022-11-15T05:51:25.869Z,1.19
2022-11-15T05:54:34.029Z,0.95
2022-11-15T05:57:41.686Z,-0.28
2022-11-15T06:00:48.953Z,-0.27
2022-11-15T06:03:55.310Z,-0.27
2022-11-15T06:07:01.960Z,0.12
2022-11-15T06:10:09.803Z,-0.22
2022-11-15T06:13:17.646Z,-0.28
2022-11-15T06:16:24.313Z,0.24
2022-11-15T06:19:33.869Z,0.63
2022-11-15T06:22:40.406Z,0.59
2022-11-15T06:25:46.766Z,1.21
2022-11-15T06:28:54.292Z,1.83
2022-11-15T06:32:00.406Z,2.21
2022-11-15T06:35:07.687Z,2.09
2022-11-15T06:38:14.107Z,2.16
2022-11-15T06:41:22.075Z,2.56
2022-11-15T06:44:29.563Z,2.85
2022-11-15T06:47:35.802Z,2.76
2022-11-15T06:50:42.652Z,3.03
2022-11-15T06:53:48.614Z,3.37
2022-11-15T06:56:54.797Z,3.25
2022-11-15T07:00:02.676Z,3.51
2022-11-15T07:03:09.256Z,3.76
2022-11-15T07:06:15.669Z,3.68
2022-11-15T07:09:21.885Z,3.64
2022-11-15T07:12:28.066Z,3.45
2022-11-15T07:15:35.873Z,3.80
2022-11-15T07:18:42.996Z,4.10
2022-11-15T07:21:49.482Z,3.85
2022-11-15T07:24:55.653Z,4.07
2022-11-15T07:28:02.933Z,4.43
2022-11-15T07:31:11.225Z,4.86
2022-11-15T07:34:17.972Z,4.63
2022-11-15T07:37:24.500Z,5.07
2022-11-15T07:40:32.761Z,5.54
2022-11-15T07:43:38.922Z,5.50
2022-11-15T07:46:46.667Z,5.65
2022-11-15T07:49:53.221Z,5.64
2022-11-15T07:53:01.539Z,5.71
2022-11-15T07:56:09.048Z,5.70
2022-11-15T07:59:15.385Z,6.25
2022-11-15T08:02:27.629Z,6.12
2022-11-15T08:05:37.384Z,6.40
2022-11-15T08:08:44.005Z,6.59
2022-11-15T08:11:50.277Z,6.57
2022-11-15T08:14:56.621Z,7.21
2022-11-15T08:18:06.731Z,7.11
2022-11-15T08:21:18.442Z,7.29
2022-11-15T08:24:25.038Z,7.47
2022-11-15T08:27:31.303Z,8.03
2022-11-15T08:30:42.685Z,7.77
2022-11-15T08:33:50.225Z,7.74
2022-11-15T08:36:56.516Z,7.88
2022-11-15T08:40:03.113Z,8.39
2022-11-15T08:43:09.945Z,8.06
2022-11-15T08:46:16.546Z,8.50
2022-11-15T08:49:24.501Z,8.71
2022-11-15T08:52:30.484Z,8.46
2022-11-15T08:55:39.637Z,8.71
2022-11-15T08:58:45.800Z,8.92
2022-11-15T09:01:52.014Z,9.38
2022-11-15T09:04:59.584Z,9.46
2022-11-15T09:08:19.183Z,9.28
2022-11-15T09:11:33.420Z,9.38
2022-11-15T09:14:40.117Z,9.68
2022-11-15T09:17:46.501Z,10.04
2022-11-15T09:20:57.727Z,9.53
2022-11-15T09:24:05.389Z,9.94
2022-11-15T09:27:11.594Z,9.94
2022-11-15T09:30:18.706Z,10.61
2022-11-15T09:33:24.818Z,10.36
2022-11-15T09:36:32.395Z,10.57
2022-11-15T09:39:38.769Z,10.32
2022-11-15T09:43:00.861Z,10.80
2022-11-15T09:46:16.384Z,10.83
2022-11-15T09:49:24.353Z,10.97
2022-11-15T09:52:31.778Z,11.36
2022-11-15T09:55:49.880Z,11.90
2022-11-15T09:59:08.338Z,12.76
2022-11-15T10:02:26.198Z,12.84
2022-11-15T10:05:34.599Z,12.75
2022-11-15T10:08:52.920Z,12.16
2022-11-15T10:11:59.240Z,13.04
2022-11-15T10:15:12.428Z,13.18
2022-11-15T10:18:21.819Z,13.55
2022-11-15T10:21:40.897Z,13.40
2022-11-15T10:24:49.159Z,13.72
2022-11-15T10:27:58.866Z,13.96
2022-11-15T10:31:06.415Z,13.70
2022-11-15T10:34:16.078Z,14.41
2022-11-15T10:37:31.510Z,13.74
2022-11-15T10:40:40.083Z,14.37
2022-11-15T10:43:47.275Z,14.03
2022-11-15T10:47:28.325Z,14.36
2022-11-15T10:50:34.923Z,14.63
2022-11-15T10:53:47.667Z,14.06
2022-11-15T10:56:58.304Z,14.00
2022-11-15T11:00:08.535Z,14.61
2022-11-15T11:03:30.902Z,15.20
2022-11-15T11:06:49.579Z,15.41
2022-11-15T11:10:01.723Z,14.79
2022-11-15T11:13:25.699Z,15.45
2022-11-15T11:16:47.258Z,15.68
2022-11-15T11:20:05.784Z,15.48
2022-11-15T11:23:37.854Z,15.59
2022-11-15T11:26:51.704Z,15.33
2022-11-15T11:30:11.513Z,15.97
2022-11-15T11:33:21.244Z,16.38
2022-11-15T11:36:33.670Z,16.27
2022-11-15T11:39:51.376Z,16.35
2022-11-15T11:43:06.822Z,15.90
2022-11-15T11:46:31.741Z,16.22
2022-11-15T11:49:45.893Z,16.31
2022-11-15T11:53:03.655Z,16.58
2022-11-15T11:56:21.836Z,16.68
2022-11-15T11:59:38.090Z,16.76
2022-11-15T12:02:50.164Z,16.98
2022-11-15T12:05:59.890Z,16.84
2022-11-15T12:09:16.789Z,16.96
2022-11-15T12:12:30.016Z,17.03
2022-11-15T12:15:56.937Z,16.87
2022-11-15T12:19:06.830Z,16.95
2022-11-15T12:22:21.936Z,17.26
2022-11-15T12:25:33.540Z,17.51
2022-11-15T12:28:58.667Z,18.05
2022-11-15T12:32:25.376Z,17.36
2022-11-15T12:35:37.177Z,17.42
2022-11-15T12:38:57.156Z,17.98
2022-11-15T12:42:36.492Z,17.85
2022-11-15T12:45:44.294Z,18.08
2022-11-15T12:48:58.748Z,18.29
2022-11-15T12:52:11.768Z,18.03
2022-11-15T12:55:34.065Z,18.63
2022-11-15T12:58:46.943Z,18.45
2022-11-15T13:02:03.562Z,19.04
2022-11-15T13:05:43.201Z,18.38
2022-11-15T13:08:52.565Z,18.25
2022-11-15T13:11:59.964Z,18.11
2022-11-15T13:15:43.091Z,18.01
2022-11-15T13:18:56.219Z,17.29
2022-11-15T13:22:23.267Z,18.25
2022-11-15T13:26:12.248Z,17.98
2022-11-15T13:29:22.041Z,17.56
2022-11-15T13:32:28.165Z,17.57
2022-11-15T13:35:38.550Z,16.78
2022-11-15T13:38:45.737Z,16.58
2022-11-15T13:41:53.686Z,16.07
2022-11-15T13:45:05.746Z,15.64
2022-11-15T13:48:12.385Z,15.42
2022-11-15T13:51:25.972Z,14.90
2022-11-15T13:54:37.791Z,14.60
2022-11-15T13:57:46.698Z,13.70
2022-11-15T14:01:03.074Z,13.67
2022-11-15T14:04:13.673Z,13.25
2022-11-15T14:07:22.455Z,12.91
2022-11-15T14:10:31.833Z,12.62
2022-11-15T14:13:38.476Z,12.44
2022-11-15T14:16:48.140Z,12.15
2022-11-15T14:19:54.296Z,12.15
2022-11-15T14:23:02.395Z,11.99
2022-11-15T14:26:13.716Z,11.72
2022-11-15T14:29:26.974Z,11.40
2022-11-15T14:32:45.696Z,11.49
2022-11-15T14:35:52.788Z,11.36
2022-11-15T14:38:59.362Z,10.94
2022-11-15T14:42:10.550Z,10.86
2022-11-15T14:45:19.289Z,10.87
2022-11-15T14:48:27.177Z,10.74
2022-11-15T14:51:34.379Z,10.61
2022-11-15T14:54:40.581Z,10.12
2022-11-15T14:58:01.163Z,10.77
2022-11-15T15:01:14.932Z,10.18
2022-11-15T15:04:22.632Z,10.30
2022-11-15T15:07:28.737Z,9.82
2022-11-15T15:10:51.356Z,9.92
2022-11-15T15:13:59.428Z,9.98
2022-11-15T15:17:05.918Z,9.88
2022-11-15T15:20:27.629Z,9.68
2022-11-15T15:23:33.990Z,9.58
2022-11-15T15:26:40.402Z,9.56
2022-11-15T15:29:46.745Z,9.37
2022-11-15T15:32:53.332Z,9.28
2022-11-15T15:36:12.688Z,9.07
2022-11-15T15:39:18.928Z,8.94
2022-11-15T15:42:25.663Z,9.01
2022-11-15T15:45:40.557Z,8.81
2022-11-15T15:48:47.700Z,8.77
2022-11-15T15:51:55.246Z,8.56
2022-11-15T15:55:01.855Z,8.73
2022-11-15T15:58:09.341Z,8.96
2022-11-15T16:01:15.680Z,8.49
2022-11-15T16:04:22.079Z,8.55
2022-11-15T16:07:30.493Z,8.59
2022-11-15T16:10:37.888Z,8.36
2022-11-15T16:13:44.243Z,8.75
2022-11-15T16:16:50.450Z,8.61
2022-11-15T16:19:56.721Z,8.38
2022-11-15T16:23:08.931Z,7.98
2022-11-15T16:26:22.426Z,8.21
2022-11-15T16:29:29.305Z,8.11
2022-11-15T16:32:35.793Z,8.01
2022-11-15T16:35:42.287Z,8.20
2022-11-15T16:38:50.437Z,7.76
2022-11-15T16:41:56.812Z,7.86
2022-11-15T16:45:03.069Z,7.78
2022-11-15T16:48:35.202Z,7.60
2022-11-15T16:51:42.751Z,7.29
2022-11-15T16:54:50.428Z,7.14
2022-11-15T16:57:58.131Z,6.70
2022-11-15T17:01:05.810Z,7.35
2022-11-15T17:04:13.631Z,7.31
2022-11-15T17:07:19.711Z,7.26
2022-11-15T17:10:28.386Z,7.35
2022-11-15T17:13:34.761Z,6.95
2022-11-15T17:16:42.657Z,7.10
2022-11-15T17:19:48.562Z,7.06
2022-11-15T17:22:54.458Z,7.12
2022-11-15T17:26:17.867Z,6.94
2022-11-15T17:29:30.604Z,6.58
2022-11-15T17:32:38.243Z,6.55
2022-11-15T17:35:44.381Z,6.72
2022-11-15T17:38:58.011Z,6.16
2022-11-15T17:42:07.076Z,6.39
2022-11-15T17:45:14.484Z,6.37
2022-11-15T17:48:20.706Z,6.41
2022-11-15T17:51:27.829Z,6.33
2022-11-15T17:54:34.436Z,5.88
2022-11-15T17:57:42.274Z,6.03
2022-11-15T18:00:49.827Z,5.95
2022-11-15T18:03:57.165Z,5.80
2022-11-15T18:07:03.872Z,6.12
2022-11-15T18:10:10.694Z,5.99
2022-11-15T18:13:18.717Z,5.96
2022-11-15T18:16:31.144Z,5.69
2022-11-15T18:19:37.853Z,5.84
2022-11-15T18:22:43.950Z,5.76
2022-11-15T18:25:53.053Z,5.68
2022-11-15T18:29:05.737Z,5.56
2022-11-15T18:32:12.679Z,5.65
2022-11-15T18:35:19.053Z,5.83
2022-11-15T18:38:30.596Z,5.84
2022-11-15T18:41:37.177Z,5.84
2022-11-15T18:44:44.558Z,5.63
2022-11-15T18:48:04.517Z,5.46
2022-11-15T18:51:11.810Z,5.09
2022-11-15T18:54:19.088Z,5.09
2022-11-15T18:57:26.637Z,5.37
2022-11-15T19:00:34.203Z,5.44
2022-11-15T19:03:42.777Z,5.47
2022-11-15T19:06:51.508Z,5.48
2022-11-15T19:09:57.928Z,5.16
2022-11-15T19:13:04.181Z,5.32
2022-11-15T19:16:14.102Z,5.36
2022-11-15T19:19:21.807Z,5.25
2022-11-15T19:22:27.776Z,5.29
2022-11-15T19:25:33.801Z,5.26
2022-11-15T19:28:40.406Z,4.81
2022-11-15T19:31:48.895Z,4.86
2022-11-15T19:34:55.083Z,4.83
2022-11-15T19:38:01.449Z,4.67
2022-11-15T19:41:09.797Z,4.83
2022-11-15T19:44:16.619Z,4.70
2022-11-15T19:47:24.444Z,4.37
2022-11-15T19:50:30.757Z,4.07
2022-11-15T19:53:38.185Z,4.13
2022-11-15T19:56:44.774Z,4.29
2022-11-15T19:59:51.033Z,4.30
2022-11-15T20:02:58.835Z,4.53
2022-11-15T20:06:06.908Z,4.43
2022-11-15T20:09:15.040Z,4.36
2022-11-15T20:12:21.600Z,4.50
2022-11-15T20:15:28.289Z,4.58
2022-11-15T20:18:36.504Z,4.63
2022-11-15T20:21:43.751Z,4.16
2022-11-15T20:24:50.036Z,4.17
2022-11-15T20:27:56.231Z,4.40
2022-11-15T20:31:03.012Z,4.24
2022-11-15T20:34:11.074Z,4.23
2022-11-15T20:37:17.505Z,4.27
2022-11-15T20:40:24.134Z,4.08
2022-11-15T20:43:30.362Z,3.87
2022-11-15T20:46:36.632Z,4.05
2022-11-15T20:49:44.082Z,3.94
2022-11-15T20:52:50.396Z,3.81
2022-11-15T20:55:56.255Z,3.78
2022-11-15T20:59:02.457Z,3.83
2022-11-15T21:02:10.606Z,3.85
2022-11-15T21:05:18.474Z,4.06
2022-11-15T21:08:24.829Z,4.18
2022-11-15T21:11:48.858Z,4.30
2022-11-15T21:14:54.936Z,4.37
2022-11-15T21:18:01.242Z,4.05
2022-11-15T21:21:09.065Z,3.83
2022-11-15T21:24:15.139Z,3.36
2022-11-15T21:27:21.810Z,3.39
2022-11-15T21:30:28.237Z,3.42
2022-11-15T21:33:36.154Z,3.76
2022-11-15T21:36:44.091Z,3.17
2022-11-15T21:39:50.793Z,3.06
2022-11-15T21:42:57.430Z,2.86
2022-11-15T21:46:05.535Z,3.30
2022-11-15T21:49:11.803Z,2.94
2022-11-15T21:52:19.643Z,3.52
2022-11-15T21:55:25.875Z,3.55
2022-11-15T21:58:32.760Z,3.48
2022-11-15T22:01:56.928Z,3.83
2022-11-15T22:05:02.970Z,3.78
2022-11-15T22:08:10.736Z,3.81
2022-11-15T22:11:17.205Z,3.74
2022-11-15T22:14:23.401Z,3.76
2022-11-15T22:17:49.601Z,3.78
2022-11-15T22:20:57.052Z,3.77
2022-11-15T22:24:05.259Z,3.59
2022-11-15T22:27:12.044Z,3.72
2022-11-15T22:30:19.544Z,3.17
2022-11-15T22:33:28.206Z,2.82
2022-11-15T22:36:52.368Z,2.87
2022-11-15T22:40:02.874Z,2.95
2022-11-15T22:43:09.533Z,3.24
2022-11-15T22:46:16.273Z,2.66
2022-11-15T22:49:22.715Z,2.86
2022-11-15T22:52:29.365Z,2.60
2022-11-15T22:55:38.903Z,2.36
2022-11-15T22:58:45.467Z,2.81
2022-11-15T23:01:52.053Z,2.99
2022-11-15T23:04:58.534Z,3.20
2022-11-15T23:08:05.169Z,2.86
2022-11-15T23:11:30.814Z,3.28
2022-11-15T23:14:37.109Z,2.64
2022-11-15T23:17:43.741Z,2.60
2022-11-15T23:20:50.279Z,2.29
2022-11-15T23:23:55.569Z,2.95
2022-11-15T23:27:07.260Z,3.10
2022-11-15T23:30:43.466Z,2.96
2022-11-15T23:33:58.665Z,2.36
2022-11-15T23:37:06.844Z,1.92
2022-11-15T23:40:14.224Z,1.90
2022-11-15T23:43:22.811Z,2.42
2022-11-15T23:46:29.265Z,2.06
2022-11-15T23:49:35.558Z,2.31
2022-11-15T23:52:41.727Z,2.21
2022-11-15T23:55:55.977Z,2.52
2022-11-15T23:59:03.883Z,2.06
